Time;durP1;ratioP1;P1;durP2;ratioP2;P2;SDS_P1;SDS_P2;PMS_P1;PMS_P2;Temp;Humidity;BMP_temperature;BMP_pressure;BME280_temperature;BME280_humidity;BME280_pressure;Samples;Min_cycle;Max_cycle;Signal;HPM_P1;HPM_P2
2023/05/18 00:02:17;;;;;;;;;;;;;;;11.07;98.69;101717.41;5028036;28;19925;-94
2023/05/18 00:04:42;;;;;;;;;;;;;;;10.90;100.00;101714.66;5026355;28;19968;-95
2023/05/18 00:07:08;;;;;;;;;;;;;;;10.81;100.00;101715.81;5027998;28;19917;-95
2023/05/18 00:09:34;;;;;;;;;;;;;;;10.71;100.00;101715.31;5029344;28;19932;-95
2023/05/18 00:12:00;;;;;;;;;;;;;;;10.87;100.00;101714.75;5028712;28;19918;-96
2023/05/18 00:14:26;;;;;;;;;;;;;;;10.87;100.00;101717.31;5027648;28;19964;-95
2023/05/18 00:16:52;;;;;;;;;;;;;;;10.90;100.00;101717.22;5027664;28;19918;-94
2023/05/18 00:19:19;;;;;;;;;;;;;;;11.03;100.00;101721.00;5030011;28;19929;-96
2023/05/18 00:21:45;;;;;;;;;;;;;;;11.05;100.00;101723.53;5031438;28;19918;-95
2023/05/18 00:24:11;;;;;;;;;;;;;;;11.13;100.00;101727.50;5031453;28;19917;-95
2023/05/18 00:26:37;;;;;;;;;;;;;;;10.93;100.00;101719.69;5031556;28;19926;-95
2023/05/18 00:29:04;;;;;;;;;;;;;;;10.88;100.00;101719.03;5029257;28;20430;-95
2023/05/18 00:31:35;;;;;;;;;;;;;;;10.78;100.00;101723.69;5010693;28;19925;-96
2023/05/18 00:34:07;;;;;;;;;;;;;;;10.80;100.00;101715.88;5025712;28;19917;-95
2023/05/18 00:36:32;;;;;;;;;;;;;;;11.01;100.00;101712.47;5028345;28;19921;-95
2023/05/18 00:38:58;;;;;;;;;;;;;;;11.10;100.00;101721.63;5028976;28;19932;-95
2023/05/18 00:41:25;;;;;;;;;;;;;;;11.10;100.00;101716.44;5028425;28;19922;-94
2023/05/18 00:43:50;;;;;;;;;;;;;;;11.11;100.00;101718.97;5027660;28;19933;-94
2023/05/18 00:46:16;;;;;;;;;;;;;;;11.11;100.00;101715.53;5028331;28;19922;-95
2023/05/18 00:48:42;;;;;;;;;;;;;;;11.05;100.00;101719.22;5041281;28;19921;-95
2023/05/18 00:51:07;;;;;;;;;;;;;;;11.09;100.00;101718.16;5048826;28;19916;-95
2023/05/18 00:53:33;;;;;;;;;;;;;;;11.07;100.00;101727.75;5044921;28;19965;-95
2023/05/18 00:55:58;;;;;;;;;;;;;;;11.11;100.00;101721.53;5022001;28;20367;-94
2023/05/18 00:58:25;;;;;;;;;;;;;;;11.08;100.00;101715.66;5023499;28;20388;-94
2023/05/18 01:00:51;;;;;;;;;;;;;;;10.98;100.00;101722.94;5022093;28;20433;-95
2023/05/18 01:03:19;;;;;;;;;;;;;;;10.90;100.00;101722.41;5021171;28;19921;-95
2023/05/18 01:05:44;;;;;;;;;;;;;;;10.69;100.00;101719.69;5020507;28;20372;-95
2023/05/18 01:08:09;;;;;;;;;;;;;;;10.68;100.00;101719.75;5025156;28;19989;-95
2023/05/18 01:10:37;;;;;;;;;;;;;;;10.84;100.00;101723.44;5026550;28;20669;-95
2023/05/18 01:13:05;;;;;;;;;;;;;;;10.95;100.00;101719.59;5021267;28;19917;-94
2023/05/18 01:15:36;;;;;;;;;;;;;;;10.98;100.00;101719.50;5023156;28;19917;-95
2023/05/18 01:18:09;;;;;;;;;;;;;;;10.93;100.00;101720.53;5024895;28;19944;-95
2023/05/18 01:20:40;;;;;;;;;;;;;;;10.95;100.00;101727.34;5025904;28;19917;-95
2023/05/18 01:23:24;;;;;;;;;;;;;;;10.90;100.00;101717.22;5026442;28;19922;-95
2023/05/18 01:25:53;;;;;;;;;;;;;;;10.88;100.00;101711.28;5025871;28;19917;-95
2023/05/18 01:31:14;;;;;;;;;;;;;;;10.70;100.00;101717.97;5044799;28;19925;-96
2023/05/18 01:33:40;;;;;;;;;;;;;;;10.55;100.00;101713.38;5031842;28;19917;-95
2023/05/18 01:36:05;;;;;;;;;;;;;;;10.59;100.00;101715.78;5033592;28;19948;-95
2023/05/18 01:38:31;;;;;;;;;;;;;;;10.58;100.00;101716.66;5033293;28;19977;-96
2023/05/18 01:41:09;;;;;;;;;;;;;;;10.67;100.00;101721.50;5049618;28;19928;-96
2023/05/18 01:43:35;;;;;;;;;;;;;;;10.40;100.00;101719.94;5048043;28;19921;-96
2023/05/18 01:46:04;;;;;;;;;;;;;;;10.55;100.00;101714.22;5033269;28;19917;-96
2023/05/18 01:48:33;;;;;;;;;;;;;;;10.68;100.00;101714.59;5033112;28;19948;-96
2023/05/18 01:50:59;;;;;;;;;;;;;;;10.70;100.00;101718.81;5034167;28;19976;-96
2023/05/18 01:53:37;;;;;;;;;;;;;;;10.75;100.00;101715.19;5030242;28;19940;-96
2023/05/18 01:56:05;;;;;;;;;;;;;;;10.73;100.00;101717.00;5029575;28;19921;-95
2023/05/18 01:58:31;;;;;;;;;;;;;;;10.66;100.00;101711.25;5033448;28;19923;-95
2023/05/18 02:00:57;;;;;;;;;;;;;;;10.69;100.00;101719.69;5012055;28;19922;-95
2023/05/18 02:03:22;;;;;;;;;;;;;;;10.73;100.00;101712.69;5016833;28;19931;-96
2023/05/18 02:05:48;;;;;;;;;;;;;;;10.79;100.00;101711.63;5026937;28;19989;-96
2023/05/18 02:08:13;;;;;;;;;;;;;;;10.77;100.00;101716.81;5033228;28;19921;-96
2023/05/18 02:10:38;;;;;;;;;;;;;;;10.66;100.00;101716.41;5027051;28;20304;-96
2023/05/18 02:13:04;;;;;;;;;;;;;;;10.61;100.00;101714.00;5025668;28;20020;-95
2023/05/18 02:15:30;;;;;;;;;;;;;;;10.52;100.00;101710.91;5033235;28;19917;-96
2023/05/18 02:17:56;;;;;;;;;;;;;;;10.58;100.00;101714.09;5033107;28;19941;-96
2023/05/18 02:20:22;;;;;;;;;;;;;;;10.59;100.00;101715.78;5032590;28;19921;-96
2023/05/18 02:22:48;;;;;;;;;;;;;;;10.63;100.00;101719.09;5031357;28;19917;-95
2023/05/18 02:25:13;;;;;;;;;;;;;;;10.63;100.00;101717.38;5030870;28;19936;-95
2023/05/18 02:27:39;;;;;;;;;;;;;;;10.58;100.00;101714.09;5031509;28;19920;-95
2023/05/18 02:30:07;;;;;;;;;;;;;;;10.41;100.00;101711.28;5028325;28;19949;-96
2023/05/18 02:32:37;;;;;;;;;;;;;;;10.48;100.00;101710.16;5031136;28;19917;-94
2023/05/18 02:35:05;;;;;;;;;;;;;;;10.48;100.00;101708.44;5030403;28;19988;-95
2023/05/18 02:37:33;;;;;;;;;;;;;;;10.54;100.00;101707.38;5029872;28;19921;-96
2023/05/18 02:39:59;;;;;;;;;;;;;;;10.56;100.00;101709.88;5032264;28;19917;-96
2023/05/18 02:42:25;;;;;;;;;;;;;;;10.58;100.00;101714.09;5032483;28;20004;-96
2023/05/18 02:44:50;;;;;;;;;;;;;;;10.56;100.00;101710.75;5032439;28;19917;-95
2023/05/18 02:47:16;;;;;;;;;;;;;;;10.47;100.00;101709.34;5033042;28;19924;-94
2023/05/18 02:49:41;;;;;;;;;;;;;;;10.41;100.00;101712.16;5033943;28;19917;-95
2023/05/18 02:52:07;;;;;;;;;;;;;;;10.23;100.00;101718.75;5028031;28;19921;-96
2023/05/18 02:54:32;;;;;;;;;;;;;;;10.18;100.00;101712.94;5013226;28;19964;-96
2023/05/18 02:56:58;;;;;;;;;;;;;;;10.16;100.00;101716.47;5027096;28;19988;-96
2023/05/18 02:59:23;;;;;;;;;;;;;;;10.18;100.00;101712.09;5029259;28;19924;-95
2023/05/18 03:01:50;;;;;;;;;;;;;;;10.16;100.00;101706.97;5017258;28;19974;-96
2023/05/18 03:04:16;;;;;;;;;;;;;;;10.21;100.00;101706.81;5031812;28;19921;-95
2023/05/18 03:06:41;;;;;;;;;;;;;;;10.28;100.00;101719.47;5028608;28;19921;-94
2023/05/18 03:09:07;;;;;;;;;;;;;;;10.26;100.00;101713.47;5024097;28;19921;-96
2023/05/18 03:11:32;;;;;;;;;;;;;;;10.02;100.00;101715.22;5031344;28;19917;-96
2023/05/18 03:13:59;;;;;;;;;;;;;;;10.07;100.00;101715.03;5049064;28;19901;-96
2023/05/18 03:16:27;;;;;;;;;;;;;;;10.02;100.00;101716.94;5030320;28;19924;-95
2023/05/18 03:18:57;;;;;;;;;;;;;;;10.02;100.00;101710.06;5029203;28;19925;-95
2023/05/18 03:21:23;;;;;;;;;;;;;;;10.10;100.00;101703.78;5023440;28;19922;-95
2023/05/18 03:23:48;;;;;;;;;;;;;;;10.20;100.00;101698.25;5015210;28;19985;-95
2023/05/18 03:26:15;;;;;;;;;;;;;;;10.16;100.00;101706.97;5021823;28;19928;-95
2023/05/18 03:28:41;;;;;;;;;;;;;;;10.21;100.00;101710.22;5028132;28;19917;-96
2023/05/18 03:31:06;;;;;;;;;;;;;;;10.20;100.00;101705.16;5021675;28;19943;-95
2023/05/18 03:33:31;;;;;;;;;;;;;;;10.18;100.00;101705.19;5018011;28;19967;-96
2023/05/18 03:36:00;;;;;;;;;;;;;;;9.90;100.00;101704.47;5020147;28;19929;-95
2023/05/18 03:38:25;;;;;;;;;;;;;;;9.74;100.00;101701.56;5018567;28;19948;-95
2023/05/18 03:40:51;;;;;;;;;;;;;;;9.74;100.00;101702.41;5034544;28;19917;-95
2023/05/18 03:43:16;;;;;;;;;;;;;;;9.60;100.00;101702.03;5027561;28;19967;-96
2023/05/18 03:45:41;;;;;;;;;;;;;;;9.62;100.00;101701.06;5026310;28;19917;-95
2023/05/18 03:48:07;;;;;;;;;;;;;;;9.61;100.00;101703.72;5026973;28;19925;-96
2023/05/18 03:50:32;;;;;;;;;;;;;;;9.62;100.00;101695.91;5028611;28;19917;-95
2023/05/18 03:52:58;;;;;;;;;;;;;;;9.70;100.00;101703.41;5027794;28;19921;-95
2023/05/18 03:55:23;;;;;;;;;;;;;;;9.72;100.00;101704.19;5014712;28;19925;-95
2023/05/18 03:57:52;;;;;;;;;;;;;;;9.67;100.00;101703.50;5033457;28;19949;-95
2023/05/18 04:00:19;;;;;;;;;;;;;;;9.67;100.00;101702.66;5034277;28;19924;-96
2023/05/18 04:02:45;;;;;;;;;;;;;;;9.72;100.00;101704.19;5032718;28;19952;-96
2023/05/18 04:05:11;;;;;;;;;;;;;;;9.69;100.00;101706.88;5034167;28;19913;-95
2023/05/18 04:07:42;;;;;;;;;;;;;;;9.63;100.00;101712.22;5030611;28;19945;-92
2023/05/18 04:10:08;;;;;;;;;;;;;;;9.77;100.00;101704.03;5043580;28;20027;-95
2023/05/18 04:12:33;;;;;;;;;;;;;;;9.84;100.00;101706.34;5032119;28;20028;-96
2023/05/18 04:14:59;;;;;;;;;;;;;;;9.87;100.00;101700.25;5034275;28;20134;-95
2023/05/18 04:17:26;;;;;;;;;;;;;;;9.89;100.00;101698.47;5037193;28;19931;-96
2023/05/18 04:19:53;;;;;;;;;;;;;;;9.88;100.00;101696.78;5037559;28;19949;-95
2023/05/18 04:22:20;;;;;;;;;;;;;;;9.88;100.00;101701.94;5052560;28;20012;-95
2023/05/18 04:24:46;;;;;;;;;;;;;;;9.76;100.00;101705.78;5030934;28;19976;-96
2023/05/18 04:27:15;;;;;;;;;;;;;;;9.67;100.00;101703.50;5033165;28;20445;-95
2023/05/18 04:29:42;;;;;;;;;;;;;;;9.78;100.00;101696.25;5034556;28;19921;-95
2023/05/18 04:32:09;;;;;;;;;;;;;;;9.82;100.00;101695.25;5037988;28;19917;-95
2023/05/18 04:34:36;;;;;;;;;;;;;;;9.83;100.00;101690.94;5012282;28;19921;-96
2023/05/18 04:37:04;;;;;;;;;;;;;;;9.88;100.00;101694.22;5029746;28;19921;-95
2023/05/18 04:39:29;;;;;;;;;;;;;;;9.90;100.00;101704.47;5027458;28;19929;-95
2023/05/18 04:41:58;;;;;;;;;;;;;;;10.00;100.00;101701.53;5030923;28;19983;-96
2023/05/18 04:44:24;;;;;;;;;;;;;;;10.03;100.00;101701.41;5028988;28;19959;-96
2023/05/18 04:46:51;;;;;;;;;;;;;;;10.07;100.00;101709.88;5021386;28;19967;-95
2023/05/18 04:49:20;;;;;;;;;;;;;;;10.10;100.00;101707.22;5022269;28;19917;-95
2023/05/18 04:51:46;;;;;;;;;;;;;;;10.13;100.00;101706.25;5029305;28;19995;-96
2023/05/18 04:54:11;;;;;;;;;;;;;;;10.18;100.00;101715.50;5017331;28;19933;-95
2023/05/18 04:56:37;;;;;;;;;;;;;;;10.24;100.00;101699.81;5018179;28;19917;-96
2023/05/18 04:59:03;;;;;;;;;;;;;;;10.22;100.00;101717.09;5020335;28;19928;-95
2023/05/18 05:01:28;;;;;;;;;;;;;;;10.27;100.00;101709.19;5020776;28;19925;-96
2023/05/18 05:03:53;;;;;;;;;;;;;;;10.32;100.00;101722.81;5020553;28;20020;-96
2023/05/18 05:06:19;;;;;;;;;;;;;;;10.40;100.00;101719.94;5018524;28;19913;-95
2023/05/18 05:08:44;;;;;;;;;;;;;;;10.42;100.00;101718.16;5019115;28;19921;-96
2023/05/18 05:11:09;;;;;;;;;;;;;;;10.42;100.00;101726.72;5033797;28;19917;-95
2023/05/18 05:13:35;;;;;;;;;;;;;;;10.43;100.00;101718.06;5028565;28;19918;-96
2023/05/18 05:16:01;;;;;;;;;;;;;;;10.54;100.00;101727.19;5022678;28;19924;-95
2023/05/18 05:18:26;;;;;;;;;;;;;;;10.48;100.00;101718.78;5025354;28;19925;-95
2023/05/18 05:20:52;;;;;;;;;;;;;;;10.55;100.00;101719.38;5024453;28;19924;-96
2023/05/18 05:23:17;;;;;;;;;;;;;;;10.57;100.00;101722.75;5008687;28;19937;-96
2023/05/18 05:25:43;;;;;;;;;;;;;;;10.64;100.00;101723.38;5007570;28;19918;-96
2023/05/18 05:28:08;;;;;;;;;;;;;;;10.71;100.00;101720.50;5004647;28;19922;-96
2023/05/18 05:30:34;;;;;;;;;;;;;;;10.78;100.00;101726.28;5018918;28;19956;-95
2023/05/18 05:32:59;;;;;;;;;;;;;;;10.84;100.00;101727.78;5026324;28;19917;-95
2023/05/18 05:35:24;;;;;;;;;;;;;;;10.91;100.00;101721.47;5026572;28;19921;-96
2023/05/18 05:37:50;;;;;;;;;;;;;;;10.97;100.00;101728.97;5024543;28;19921;-95
2023/05/18 05:40:15;;;;;;;;;;;;;;;10.93;100.00;101724.84;5016620;28;20059;-95
2023/05/18 05:42:41;;;;;;;;;;;;;;;10.77;100.00;101724.56;5017042;28;20379;-96
2023/05/18 05:45:07;;;;;;;;;;;;;;;10.75;100.00;101726.38;5016795;28;19929;-95
2023/05/18 05:47:32;;;;;;;;;;;;;;;10.70;100.00;101729.16;5017249;28;19917;-96
2023/05/18 05:49:58;;;;;;;;;;;;;;;10.86;100.00;101718.22;5037629;28;19924;-96
2023/05/18 05:52:23;;;;;;;;;;;;;;;10.90;100.00;101717.22;5032430;28;19964;-96
2023/05/18 05:54:49;;;;;;;;;;;;;;;11.00;100.00;101721.13;5026479;28;19924;-96
2023/05/18 05:57:14;;;;;;;;;;;;;;;11.08;100.00;101724.25;5028939;28;19917;-95
2023/05/18 05:59:40;;;;;;;;;;;;;;;11.16;100.00;101715.34;5027223;28;20012;-96
2023/05/18 06:02:06;;;;;;;;;;;;;;;11.24;100.00;101726.22;5088761;23;19924;-96
2023/05/18 06:04:31;;;;;;;;;;;;;;;11.37;100.00;101731.78;5038173;28;19939;-96
2023/05/18 06:06:56;;;;;;;;;;;;;;;11.41;100.00;101736.75;5037088;28;19923;-96
2023/05/18 06:09:21;;;;;;;;;;;;;;;11.50;100.00;101731.19;5037071;28;19916;-96
2023/05/18 06:11:47;;;;;;;;;;;;;;;11.63;100.00;101736.72;5021869;28;19921;-96
2023/05/18 06:14:12;;;;;;;;;;;;;;;11.80;100.00;101738.59;5018176;28;19913;-96
2023/05/18 06:16:37;;;;;;;;;;;;;;;11.95;100.00;101744.94;5017260;28;19971;-95
2023/05/18 06:19:03;;;;;;;;;;;;;;;12.09;100.00;101744.31;5016620;28;20367;-96
2023/05/18 06:21:31;;;;;;;;;;;;;;;12.28;100.00;101740.03;5018186;28;19990;-93
2023/05/18 06:23:56;;;;;;;;;;;;;;;13.08;98.92;101744.19;5030865;28;20020;-95
2023/05/18 06:26:22;;;;;;;;;;;;;;;13.98;90.94;101746.75;5016553;28;20014;-96
2023/05/18 06:28:48;;;;;;;;;;;;;;;14.87;83.48;101743.84;5019397;28;19921;-96
2023/05/18 06:31:13;;;;;;;;;;;;;;;15.54;78.65;101747.03;5001549;28;19928;-96
2023/05/18 06:33:38;;;;;;;;;;;;;;;15.77;75.60;101751.75;4999468;28;19922;-96
2023/05/18 06:36:04;;;;;;;;;;;;;;;15.86;75.45;101754.78;5006846;28;19921;-96
2023/05/18 06:38:29;;;;;;;;;;;;;;;15.91;75.30;101753.56;5018241;28;19924;-96
2023/05/18 06:40:54;;;;;;;;;;;;;;;16.03;73.64;101752.00;5017115;28;19928;-96
2023/05/18 06:43:20;;;;;;;;;;;;;;;16.67;71.51;101761.09;5019722;28;20401;-96
2023/05/18 06:45:45;;;;;;;;;;;;;;;17.37;68.37;101760.22;5016468;28;19925;-94
2023/05/18 06:48:11;;;;;;;;;;;;;;;17.79;65.48;101762.72;5020805;28;19917;-96
2023/05/18 06:50:36;;;;;;;;;;;;;;;18.19;63.71;101766.09;5020457;28;19940;-96
2023/05/18 06:53:01;;;;;;;;;;;;;;;18.79;62.50;101762.78;5017956;28;19952;-96
2023/05/18 06:55:27;;;;;;;;;;;;;;;19.24;60.17;101760.44;5017549;28;19980;-96
2023/05/18 06:57:55;;;;;;;;;;;;;;;19.84;58.35;101763.03;5018025;28;19972;-96
2023/05/18 07:00:20;;;;;;;;;;;;;;;20.34;55.43;101758.34;5017789;28;19952;-96
2023/05/18 07:02:46;;;;;;;;;;;;;;;20.80;54.54;101754.75;5016906;28;19921;-96
2023/05/18 07:05:11;;;;;;;;;;;;;;;20.79;53.93;101754.84;5016115;28;20363;-96
2023/05/18 07:07:36;;;;;;;;;;;;;;;21.16;53.61;101757.97;5019478;28;19968;-96
2023/05/18 07:12:42;;;;;;;;;;;;;;;21.12;53.29;101761.81;5436400;22;19991;-96
2023/05/18 07:15:07;;;;;;;;;;;;;;;21.38;52.69;101757.91;5049466;28;19927;-93
2023/05/18 07:17:33;;;;;;;;;;;;;;;21.42;51.89;101762.91;5020802;28;19913;-95
2023/05/18 07:19:58;;;;;;;;;;;;;;;21.73;51.17;101767.28;5020513;28;20007;-95
2023/05/18 07:22:23;;;;;;;;;;;;;;;21.20;51.68;101762.00;5020051;28;20371;-94
2023/05/18 07:24:48;;;;;;;;;;;;;;;21.45;51.13;101757.41;5021430;28;20283;-94
2023/05/18 07:27:13;;;;;;;;;;;;;;;21.98;49.96;101762.59;5035580;28;20287;-95
2023/05/18 07:29:39;;;;;;;;;;;;;;;22.32;49.24;101762.38;5014817;28;19921;-95
2023/05/18 07:32:04;;;;;;;;;;;;;;;22.38;49.18;101761.81;5006946;28;19976;-95
2023/05/18 07:34:30;;;;;;;;;;;;;;;22.59;48.78;101756.50;5035062;28;19921;-94
2023/05/18 07:36:56;;;;;;;;;;;;;;;23.04;48.40;101758.69;5032717;28;19944;-94
2023/05/18 07:39:27;;;;;;;;;;;;;;;23.43;47.46;101764.78;5017292;28;19929;-95
2023/05/18 07:41:52;;;;;;;;;;;;;;;23.38;46.88;101756.47;5031998;28;20067;-95
2023/05/18 07:44:18;;;;;;;;;;;;;;;23.45;46.26;101759.38;5035949;28;20385;-95
2023/05/18 07:46:43;;;;;;;;;;;;;;;23.55;46.08;101756.72;5018789;28;19921;-95
2023/05/18 07:49:08;;;;;;;;;;;;;;;23.89;45.65;101760.56;5035307;28;19959;-95
2023/05/18 07:51:33;;;;;;;;;;;;;;;24.14;45.53;101763.53;5015519;28;19945;-91
2023/05/18 07:53:59;;;;;;;;;;;;;;;24.31;46.15;101759.31;5021774;28;19948;-96
2023/05/18 07:56:24;;;;;;;;;;;;;;;24.40;45.08;101758.44;5034396;28;19948;-96
2023/05/18 07:58:50;;;;;;;;;;;;;;;24.02;46.13;101755.00;5038822;28;19931;-96
2023/05/18 08:01:15;;;;;;;;;;;;;;;24.76;44.24;101756.72;5017779;28;19976;-95
2023/05/18 08:03:41;;;;;;;;;;;;;;;24.59;43.61;101760.19;5035474;28;19951;-95
2023/05/18 08:06:06;;;;;;;;;;;;;;;24.08;43.62;101758.84;5040275;28;19960;-96
2023/05/18 08:08:32;;;;;;;;;;;;;;;23.12;45.89;101755.34;5041078;28;19917;-96
2023/05/18 08:10:58;;;;;;;;;;;;;;;22.53;47.45;101760.50;5131422;22;20008;-95
2023/05/18 08:13:23;;;;;;;;;;;;;;;22.16;48.58;101753.13;5061609;28;20218;-96
2023/05/18 08:15:48;;;;;;;;;;;;;;;22.22;47.71;101760.53;5040694;28;19932;-95
2023/05/18 08:18:13;;;;;;;;;;;;;;;22.09;47.01;101765.13;5035798;28;19969;-96
2023/05/18 08:20:39;;;;;;;;;;;;;;;21.30;47.88;101762.91;5036670;28;19920;-96
2023/05/18 08:23:04;;;;;;;;;;;;;;;20.84;49.09;101758.78;5036859;28;19928;-95
2023/05/18 08:25:29;;;;;;;;;;;;;;;21.28;48.28;101756.97;5036338;28;20331;-96
2023/05/18 08:27:54;;;;;;;;;;;;;;;21.68;47.91;101764.22;5035604;28;19917;-95
2023/05/18 08:30:20;;;;;;;;;;;;;;;21.99;48.28;101766.88;5034827;28;20434;-96
2023/05/18 08:32:46;;;;;;;;;;;;;;;22.10;47.34;101758.09;5037030;28;19913;-96
2023/05/18 08:35:11;;;;;;;;;;;;;;;22.60;47.10;101766.03;5035746;28;19917;-96
2023/05/18 08:37:37;;;;;;;;;;;;;;;22.78;45.92;101769.72;5035948;28;20004;-95
2023/05/18 08:40:05;;;;;;;;;;;;;;;23.24;46.05;101754.28;5035722;28;20000;-95
2023/05/18 08:42:33;;;;;;;;;;;;;;;23.06;45.49;101757.56;5034961;28;19917;-96
2023/05/18 08:45:01;;;;;;;;;;;;;;;22.70;45.78;101759.00;5034729;28;19944;-96
2023/05/18 08:47:27;;;;;;;;;;;;;;;22.79;45.57;101760.00;5034297;28;19967;-96
2023/05/18 08:49:54;;;;;;;;;;;;;;;23.03;44.53;101752.59;5033247;28;19959;-96
2023/05/18 08:52:21;;;;;;;;;;;;;;;23.32;44.73;101754.41;5024590;28;19996;-96
2023/05/18 08:54:47;;;;;;;;;;;;;;;23.84;42.43;101752.25;5034715;28;19917;-96
2023/05/18 08:57:13;;;;;;;;;;;;;;;23.00;44.42;101752.03;5039846;28;19939;-96
2023/05/18 08:59:41;;;;;;;;;;;;;;;23.29;44.72;101752.88;5038421;28;19924;-96
2023/05/18 09:02:06;;;;;;;;;;;;;;;24.06;43.57;101744.97;5037378;28;19945;-96
2023/05/18 09:04:33;;;;;;;;;;;;;;;24.46;41.78;101743.84;5035478;28;19917;-96
2023/05/18 09:07:01;;;;;;;;;;;;;;;24.24;41.85;101743.25;5033770;28;19917;-96
2023/05/18 09:09:26;;;;;;;;;;;;;;;23.57;42.20;101746.88;5034214;28;20007;-96
2023/05/18 09:11:54;;;;;;;;;;;;;;;24.67;40.54;101744.41;5034423;28;20429;-96
2023/05/18 09:14:24;;;;;;;;;;;;;;;25.48;40.25;101745.34;5029122;28;19956;-96
2023/05/18 09:16:49;;;;;;;;;;;;;;;25.97;37.97;101743.88;5025534;28;19921;-96
2023/05/18 09:19:15;;;;;;;;;;;;;;;26.32;37.65;101742.03;5033353;28;20422;-96
2023/05/18 09:21:40;;;;;;;;;;;;;;;26.19;38.56;101744.28;5033616;28;19917;-96
2023/05/18 09:24:05;;;;;;;;;;;;;;;24.61;41.65;101739.75;5034377;28;19928;-96
2023/05/18 09:26:31;;;;;;;;;;;;;;;24.66;41.40;101741.94;5033378;28;19932;-96
2023/05/18 09:28:58;;;;;;;;;;;;;;;23.82;42.99;101735.75;5034870;28;20260;-96
2023/05/18 09:31:23;;;;;;;;;;;;;;;23.22;42.79;101740.41;5033941;28;19963;-95
2023/05/18 09:33:50;;;;;;;;;;;;;;;22.58;44.12;101741.66;5034259;28;19917;-96
2023/05/18 09:36:15;;;;;;;;;;;;;;;24.11;42.66;101737.47;5034226;28;19921;-96
2023/05/18 09:38:44;;;;;;;;;;;;;;;23.81;41.04;101731.47;5036968;28;19934;-95
2023/05/18 09:41:11;;;;;;;;;;;;;;;24.48;40.69;101733.97;5034475;28;20412;-96
2023/05/18 09:43:36;;;;;;;;;;;;;;;24.84;39.58;101739.31;5033993;28;19917;-96
2023/05/18 09:46:05;;;;;;;;;;;;;;;25.20;39.52;101735.72;5034370;28;19923;-96
2023/05/18 09:48:30;;;;;;;;;;;;;;;24.61;40.33;101726.53;5033649;28;19971;-95
2023/05/18 09:50:58;;;;;;;;;;;;;;;23.91;42.93;101731.44;5032758;28;20011;-95
2023/05/18 09:53:23;;;;;;;;;;;;;;;24.10;40.76;101733.16;5032730;28;19921;-96
2023/05/18 09:55:48;;;;;;;;;;;;;;;24.13;39.97;101730.22;5032914;28;19979;-96
2023/05/18 09:58:14;;;;;;;;;;;;;;;24.47;40.27;101722.59;5033823;28;19924;-96
2023/05/18 10:00:41;;;;;;;;;;;;;;;24.66;40.53;101726.94;5033521;28;19944;-96
2023/05/18 10:03:15;;;;;;;;;;;;;;;24.15;40.67;101733.56;5033334;28;19917;-96
2023/05/18 10:05:40;;;;;;;;;;;;;;;23.83;42.38;101731.31;5033570;28;19921;-96
2023/05/18 10:08:06;;;;;;;;;;;;;;;25.07;38.60;101727.34;5033030;28;20294;-95
2023/05/18 10:10:31;;;;;;;;;;;;;;;26.01;37.90;101734.63;5032408;28;19925;-95
2023/05/18 10:12:57;;;;;;;;;;;;;;;24.66;39.60;101723.47;5033230;28;20379;-96
2023/05/18 10:15:23;;;;;;;;;;;;;;;24.58;41.36;101724.22;5033518;28;19925;-96
2023/05/18 10:17:49;;;;;;;;;;;;;;;23.72;40.86;101717.28;5033278;28;19913;-96
2023/05/18 10:20:17;;;;;;;;;;;;;;;23.32;43.10;101724.59;5033388;28;19970;-96
2023/05/18 10:22:43;;;;;;;;;;;;;;;23.38;42.98;101727.47;5033010;28;19917;-96
2023/05/18 10:25:10;;;;;;;;;;;;;;;23.20;43.57;101727.38;5032340;28;19924;-95
2023/05/18 10:27:36;;;;;;;;;;;;;;;23.35;44.11;101729.56;5032936;28;19917;-96
2023/05/18 10:30:05;;;;;;;;;;;;;;;23.54;41.66;101724.28;5032971;28;20331;-95
2023/05/18 10:32:33;;;;;;;;;;;;;;;23.42;42.08;101726.22;5033488;28;19917;-95
2023/05/18 10:34:59;;;;;;;;;;;;;;;23.43;42.08;101727.88;5033281;28;19961;-96
2023/05/18 10:37:25;;;;;;;;;;;;;;;24.13;40.31;101724.97;5033851;28;19940;-95
2023/05/18 10:39:53;;;;;;;;;;;;;;;23.57;41.11;101728.44;5033274;28;19921;-96
2023/05/18 10:42:19;;;;;;;;;;;;;;;23.83;41.60;101718.97;5032800;28;19921;-95
2023/05/18 10:44:46;;;;;;;;;;;;;;;24.90;38.78;101713.16;5033388;28;19917;-95
2023/05/18 10:47:13;;;;;;;;;;;;;;;25.15;36.96;101727.38;5033257;28;19960;-95
2023/05/18 10:49:39;;;;;;;;;;;;;;;24.65;37.34;101730.53;5032611;28;20008;-95
2023/05/18 10:52:05;;;;;;;;;;;;;;;24.44;38.17;101732.59;5033119;28;19953;-94
2023/05/18 10:54:30;;;;;;;;;;;;;;;23.87;38.49;101728.25;5033073;28;20011;-96
2023/05/18 10:56:55;;;;;;;;;;;;;;;23.40;39.13;101733.44;5032965;28;20441;-95
2023/05/18 10:59:23;;;;;;;;;;;;;;;23.88;39.40;101729.09;5032626;28;19950;-94
2023/05/18 11:01:50;;;;;;;;;;;;;;;24.67;38.24;101725.94;5032321;28;19913;-95
2023/05/18 11:04:15;;;;;;;;;;;;;;;24.72;37.12;101723.69;5032338;28;19917;-95
2023/05/18 11:06:41;;;;;;;;;;;;;;;24.47;37.09;101721.78;5031992;28;19917;-94
2023/05/18 11:09:07;;;;;;;;;;;;;;;24.76;38.14;101732.97;5030415;28;19967;-95
2023/05/18 11:11:51;;;;;;;;;;;;;;;24.53;37.28;101721.16;5031957;28;19917;-95
2023/05/18 11:14:24;;;;;;;;;;;;;;;23.44;38.21;101729.56;5032071;28;19918;-95
2023/05/18 11:16:49;;;;;;;;;;;;;;;23.61;38.78;101724.56;5032272;28;19925;-96
2023/05/18 11:19:14;;;;;;;;;;;;;;;23.29;37.98;101716.00;5032859;28;19929;-96
2023/05/18 11:21:41;;;;;;;;;;;;;;;23.53;38.01;101717.31;5032248;28;19917;-95
2023/05/18 11:24:22;;;;;;;;;;;;;;;23.28;38.24;101719.59;5030828;28;19927;-94
2023/05/18 11:27:06;;;;;;;;;;;;;;;24.06;38.38;101721.25;5032194;28;20012;-94
2023/05/18 11:29:36;;;;;;;;;;;;;;;24.58;36.89;101716.28;5032208;28;19921;-94
2023/05/18 11:32:02;;;;;;;;;;;;;;;24.93;36.40;101719.94;5033118;28;19963;-94
2023/05/18 11:34:48;;;;;;;;;;;;;;;25.48;34.38;101722.38;5032132;28;19914;-94
2023/05/18 11:37:35;;;;;;;;;;;;;;;26.27;34.69;101718.69;5032169;28;19921;-95
2023/05/18 11:40:01;;;;;;;;;;;;;;;26.74;32.47;101725.31;5015237;28;19920;-95
2023/05/18 11:42:30;;;;;;;;;;;;;;;26.38;32.79;101712.28;5031075;28;20342;-94
2023/05/18 11:44:56;;;;;;;;;;;;;;;25.99;32.29;101720.72;5032007;28;20342;-96
2023/05/18 11:47:22;;;;;;;;;;;;;;;25.82;32.35;101718.94;5031905;28;19913;-95
2023/05/18 11:49:48;;;;;;;;;;;;;;;25.68;34.29;101717.72;5031651;28;19924;-95
2023/05/18 11:52:16;;;;;;;;;;;;;;;25.53;34.72;101709.53;5032642;28;19921;-96
2023/05/18 11:54:41;;;;;;;;;;;;;;;24.91;35.00;101703.41;5033779;28;19924;-95
2023/05/18 11:57:07;;;;;;;;;;;;;;;25.09;34.72;101706.88;5034388;28;19921;-95
2023/05/18 11:59:35;;;;;;;;;;;;;;;25.40;35.23;101709.94;5035190;28;19916;-95
2023/05/18 12:02:01;;;;;;;;;;;;;;;25.24;36.31;101703.69;5035480;28;19917;-95
2023/05/18 12:04:27;;;;;;;;;;;;;;;24.11;38.66;101706.63;5035962;28;19917;-95
2023/05/18 12:06:53;;;;;;;;;;;;;;;24.12;38.54;101699.56;5035493;28;19939;-94
2023/05/18 12:09:18;;;;;;;;;;;;;;;24.62;37.71;101699.16;5034850;28;19956;-95
2023/05/18 12:11:44;;;;;;;;;;;;;;;23.97;39.80;101687.81;5035033;28;20429;-95
2023/05/18 12:14:10;;;;;;;;;;;;;;;23.22;42.12;101693.81;5034967;28;20261;-95
2023/05/18 12:16:35;;;;;;;;;;;;;;;24.44;39.12;101695.66;5034929;28;20371;-95
2023/05/18 12:19:00;;;;;;;;;;;;;;;25.53;37.45;101691.03;5034877;28;19917;-94
2023/05/18 12:21:26;;;;;;;;;;;;;;;26.38;34.74;101683.16;5035026;28;19921;-96
2023/05/18 12:23:58;;;;;;;;;;;;;;;26.61;33.04;101685.25;5034261;28;20371;-95
2023/05/18 12:26:24;;;;;;;;;;;;;;;25.38;36.58;101684.63;5034442;28;19956;-95
2023/05/18 12:28:51;;;;;;;;;;;;;;;24.72;38.19;101684.06;5034575;28;20383;-94
2023/05/18 12:31:16;;;;;;;;;;;;;;;25.15;36.84;101684.28;5033068;28;19947;-96
2023/05/18 12:33:41;;;;;;;;;;;;;;;24.93;35.63;101678.50;5034377;28;19917;-95
2023/05/18 12:36:13;;;;;;;;;;;;;;;24.76;35.50;101669.59;5034756;28;19928;-95